Baldwin, Illinois
Current Conditions -  °F | °C
As of 8:55 AM on Tuesday 21 Oct 2014 (Local Time) from KSAR Reporting Station
Clear Clear  
Wind Chill: 52°   Ceiling: Unl
Heat Index: 52°   Visibility: 10mi
Dew Point: 46°   Wind: 3mph
Humidity: 81%   Direction: 310°NW
Pressure: 30.11"   Gusts: NA
Location:  38.18°N, 89.84°W
Report Text: KSAR 211355Z AUTO 31003KT 10SM CLR 11/08 A3011 RMK AO2 T01100078
Loading
Personal Weather Stations






























Interactive Weather Map
Tropical Storm Tracking
New forecast layout! Learn more

10-Day Weather Forecast

Advertisements
Track Severe Weather on mobile